createdAt,value
2022-07-30T00:00:28.063Z,99427.66
2022-07-30T00:02:56.189Z,99426.81
2022-07-30T00:05:24.333Z,99369.63
2022-07-30T00:07:53.989Z,99308.91
2022-07-30T00:10:23.044Z,99249.25
2022-07-30T00:12:51.487Z,99191.09
2022-07-30T00:15:19.477Z,99174.69
2022-07-30T00:17:49.329Z,99140.97
2022-07-30T00:20:18.689Z,99109.88
2022-07-30T00:22:47.597Z,99092.50
2022-07-30T00:25:18.932Z,99085.81
2022-07-30T00:27:47.426Z,99078.00
2022-07-30T00:30:17.564Z,99070.16
2022-07-30T00:32:46.106Z,99068.47
2022-07-30T00:35:14.973Z,99068.47
2022-07-30T00:37:43.757Z,99080.81
2022-07-30T00:40:12.042Z,99088.50
2022-07-30T00:42:44.828Z,99115.53
2022-07-30T00:45:13.615Z,99132.59
2022-07-30T00:47:42.196Z,99165.81
2022-07-30T00:50:12.552Z,99177.00
2022-07-30T00:52:41.110Z,99194.38
2022-07-30T00:55:12.097Z,99212.44
2022-07-30T00:57:41.960Z,99250.88
2022-07-30T01:00:13.197Z,99269.78
2022-07-30T01:02:41.355Z,99314.38
2022-07-30T01:05:10.287Z,99367.22
2022-07-30T01:07:38.710Z,99368.88
2022-07-30T01:10:09.778Z,99360.03
2022-07-30T01:12:38.619Z,99346.31
2022-07-30T01:15:10.429Z,99378.28
2022-07-30T01:17:38.850Z,99368.88
2022-07-30T01:20:09.438Z,99360.34
2022-07-30T01:22:47.315Z,99362.19
2022-07-30T01:25:22.148Z,99351.81
2022-07-30T01:27:53.780Z,99322.41
2022-07-30T01:30:24.504Z,99312.88
2022-07-30T01:32:55.265Z,99351.13
2022-07-30T01:35:26.174Z,99365.84
2022-07-30T01:37:56.880Z,99376.22
2022-07-30T01:40:26.882Z,99382.56
2022-07-30T01:42:58.702Z,99390.97
2022-07-30T01:45:29.326Z,99405.16
2022-07-30T01:48:02.413Z,99382.56
2022-07-30T01:50:32.810Z,99366.16
2022-07-30T01:53:01.450Z,99408.81
2022-07-30T01:55:33.807Z,99450.97
2022-07-30T01:58:04.514Z,99462.50
2022-07-30T02:00:34.623Z,99419.19
2022-07-30T02:03:03.372Z,99387.91
2022-07-30T02:05:35.797Z,99390.56
2022-07-30T02:08:08.533Z,99399.25
2022-07-30T02:10:42.598Z,99379.19
2022-07-30T02:13:14.246Z,99378.53
2022-07-30T02:15:47.172Z,99390.72
2022-07-30T02:18:19.364Z,99420.34
2022-07-30T02:20:57.699Z,99480.38
2022-07-30T02:23:27.751Z,99495.25
2022-07-30T02:25:58.400Z,99460.47
2022-07-30T02:28:29.357Z,99437.75
2022-07-30T02:31:00.961Z,99440.72
2022-07-30T02:33:32.892Z,99422.31
2022-07-30T02:36:02.310Z,99409.25
2022-07-30T02:38:31.822Z,99429.34
2022-07-30T02:41:03.288Z,99465.81
2022-07-30T02:43:35.417Z,99492.22
2022-07-30T02:46:05.532Z,99496.41
2022-07-30T02:48:37.676Z,99480.69
2022-07-30T02:51:07.620Z,99488.88
2022-07-30T02:53:37.750Z,99488.03
2022-07-30T02:56:09.603Z,99488.03
2022-07-30T02:58:40.471Z,99476.81
2022-07-30T03:01:10.860Z,99482.16
2022-07-30T03:03:40.721Z,99454.09
2022-07-30T03:06:10.433Z,99465.75
2022-07-30T03:08:38.654Z,99453.41
2022-07-30T03:11:07.619Z,99443.69
2022-07-30T03:13:35.865Z,99477.13
2022-07-30T03:16:08.278Z,99523.97
2022-07-30T03:18:38.608Z,99551.75
2022-07-30T03:21:09.311Z,99633.44
2022-07-30T03:23:39.143Z,99626.56
2022-07-30T03:26:09.615Z,99616.03
2022-07-30T03:28:40.238Z,99637.97
2022-07-30T03:31:10.675Z,99657.03
2022-07-30T03:33:41.486Z,99684.00
2022-07-30T03:36:11.237Z,99710.31
2022-07-30T03:38:40.329Z,99757.22
2022-07-30T03:41:10.207Z,99792.22
2022-07-30T03:43:40.047Z,99844.25
2022-07-30T03:46:11.123Z,99905.25
2022-07-30T03:48:39.815Z,99968.84
2022-07-30T03:51:10.083Z,100049.00
2022-07-30T03:53:39.289Z,100114.47
2022-07-30T03:56:08.314Z,100177.41
2022-07-30T03:58:38.593Z,100254.03
2022-07-30T04:01:06.852Z,100372.75
2022-07-30T04:03:36.164Z,100430.28
2022-07-30T04:06:04.110Z,100508.13
2022-07-30T04:08:32.471Z,100579.97
2022-07-30T04:11:00.353Z,100651.81
2022-07-30T04:13:28.882Z,100727.25
2022-07-30T04:16:37.205Z,100766.53
2022-07-30T04:18:55.861Z,100780.69
2022-07-30T04:21:27.356Z,100785.75
2022-07-30T04:24:03.910Z,100782.66
2022-07-30T04:26:34.215Z,100793.13
2022-07-30T04:29:03.600Z,100828.19
2022-07-30T04:31:38.343Z,100829.88
2022-07-30T04:34:15.022Z,100834.41
2022-07-30T04:36:43.662Z,100894.88
2022-07-30T04:39:12.039Z,100958.81
2022-07-30T04:41:49.418Z,100943.97
2022-07-30T04:44:19.195Z,100965.03
2022-07-30T04:46:47.275Z,100981.72
2022-07-30T04:49:18.822Z,100961.66
2022-07-30T04:51:48.197Z,100972.97
2022-07-30T04:54:17.525Z,100976.94
2022-07-30T04:56:53.740Z,100942.69
2022-07-30T04:59:29.533Z,100939.84
2022-07-30T05:02:00.040Z,100942.69
2022-07-30T05:04:32.934Z,100932.22
2022-07-30T05:07:02.735Z,100907.63
2022-07-30T05:09:31.857Z,100896.31
2022-07-30T05:12:00.596Z,100900.56
2022-07-30T05:14:29.122Z,100898.16
2022-07-30T05:16:57.734Z,100888.41
2022-07-30T05:19:25.698Z,100897.31
2022-07-30T05:21:54.927Z,100904.53
2022-07-30T05:24:23.424Z,100886.00
2022-07-30T05:26:51.268Z,100888.69
2022-07-30T05:29:19.823Z,100909.91
2022-07-30T05:31:48.773Z,100914.13
2022-07-30T05:34:16.944Z,100901.84
2022-07-30T05:36:45.401Z,100931.09
2022-07-30T05:39:16.467Z,100932.66
2022-07-30T05:41:44.543Z,100964.47
2022-07-30T05:44:12.652Z,100977.47
2022-07-30T05:46:40.720Z,101001.97
2022-07-30T05:49:09.184Z,101061.78
2022-07-30T05:51:37.306Z,101095.03
2022-07-30T05:54:05.261Z,101123.22
2022-07-30T05:56:34.875Z,101158.19
2022-07-30T05:59:03.100Z,101208.31
2022-07-30T06:01:31.033Z,101263.59
2022-07-30T06:03:59.407Z,101319.81
2022-07-30T06:06:27.833Z,101395.38
2022-07-30T06:08:55.686Z,101425.97
2022-07-30T06:11:23.666Z,101473.47
2022-07-30T06:13:52.780Z,101522.84
2022-07-30T06:16:20.626Z,101590.50
2022-07-30T06:18:48.564Z,101625.88
2022-07-30T06:21:16.686Z,101694.72
2022-07-30T06:23:44.448Z,101686.06
2022-07-30T06:26:12.687Z,101658.50
2022-07-30T06:28:40.482Z,101634.09
2022-07-30T06:31:09.698Z,101625.25
2022-07-30T06:33:37.649Z,101680.06
2022-07-30T06:36:05.714Z,101801.38
2022-07-30T06:38:34.001Z,101905.38
2022-07-30T06:41:04.465Z,102011.16
2022-07-30T06:43:32.817Z,102158.31
2022-07-30T06:46:00.847Z,102210.53
2022-07-30T06:48:31.690Z,102353.38
2022-07-30T06:51:00.000Z,102471.97
2022-07-30T06:53:28.145Z,102547.00
2022-07-30T06:55:58.554Z,102556.97
2022-07-30T06:58:29.250Z,102596.75
2022-07-30T07:00:57.470Z,102655.97
2022-07-30T07:03:26.275Z,102691.63
2022-07-30T07:06:09.457Z,102726.63
2022-07-30T07:08:38.197Z,102792.44
2022-07-30T07:11:06.136Z,102842.13
2022-07-30T07:13:34.180Z,102874.84
2022-07-30T07:16:02.227Z,102888.13
2022-07-30T07:18:30.444Z,102899.72
2022-07-30T07:20:58.515Z,102864.28
2022-07-30T07:23:39.725Z,102817.38
2022-07-30T07:26:11.972Z,102731.44
2022-07-30T07:28:41.161Z,102728.97
2022-07-30T07:31:09.775Z,102766.97
2022-07-30T07:33:38.723Z,102835.22
2022-07-30T07:36:06.882Z,102759.81
2022-07-30T07:38:36.706Z,102701.44
2022-07-30T07:41:05.533Z,102661.66
2022-07-30T07:43:33.471Z,102677.63
2022-07-30T07:46:03.666Z,102661.66
2022-07-30T07:48:31.772Z,102688.44
2022-07-30T07:51:00.746Z,102632.63
2022-07-30T07:53:29.348Z,102600.69
2022-07-30T07:55:58.891Z,102668.78
2022-07-30T07:58:26.956Z,102772.38
2022-07-30T08:00:55.573Z,102851.25
2022-07-30T08:03:23.946Z,102932.69
2022-07-30T08:05:59.063Z,103037.28
2022-07-30T08:08:36.806Z,103112.78
2022-07-30T08:11:07.372Z,103115.38
2022-07-30T08:13:48.372Z,103148.13
2022-07-30T08:16:21.000Z,103143.69
2022-07-30T08:18:48.872Z,103152.56
2022-07-30T08:21:16.754Z,103163.19
2022-07-30T08:23:45.249Z,103248.47
2022-07-30T08:26:15.381Z,103444.81
2022-07-30T08:28:45.626Z,103667.03
2022-07-30T08:31:13.563Z,103776.63
2022-07-30T08:33:41.793Z,103788.97
2022-07-30T08:36:10.361Z,103759.69
2022-07-30T08:38:39.381Z,103639.63
2022-07-30T08:41:08.051Z,103623.56
2022-07-30T08:43:38.518Z,103540.72
2022-07-30T08:46:10.580Z,103519.44
2022-07-30T08:48:39.172Z,103595.16
2022-07-30T08:51:07.407Z,103572.94
2022-07-30T08:53:35.879Z,103517.59
2022-07-30T08:56:04.470Z,103510.56
2022-07-30T08:58:35.181Z,103455.41
2022-07-30T09:01:06.163Z,103525.50
2022-07-30T09:03:34.511Z,103521.19
2022-07-30T09:06:03.691Z,103539.72
2022-07-30T09:08:32.179Z,103527.47
2022-07-30T09:11:00.464Z,103551.38
2022-07-30T09:13:31.405Z,103606.41
2022-07-30T09:16:00.108Z,103662.47
2022-07-30T09:18:33.496Z,103732.66
2022-07-30T09:21:03.486Z,103880.63
2022-07-30T09:23:32.262Z,103821.88
2022-07-30T09:26:02.304Z,103894.00
2022-07-30T09:28:32.183Z,103926.13
2022-07-30T09:31:00.687Z,104000.13
2022-07-30T09:33:40.349Z,104075.75
2022-07-30T09:36:10.273Z,104249.66
2022-07-30T09:38:50.047Z,104389.81
2022-07-30T09:41:38.263Z,104330.28
2022-07-30T09:44:08.076Z,104354.13
2022-07-30T09:46:43.430Z,104324.63
2022-07-30T09:49:19.996Z,104381.88
2022-07-30T09:51:55.546Z,104394.28
2022-07-30T09:54:25.700Z,104497.00
2022-07-30T09:57:26.319Z,104620.34
2022-07-30T09:59:59.959Z,105024.28
2022-07-30T10:02:33.651Z,105059.97
2022-07-30T10:05:14.919Z,105046.88
2022-07-30T10:07:53.217Z,105061.72
2022-07-30T10:10:25.538Z,105139.91
2022-07-30T10:12:59.040Z,105270.63
2022-07-30T10:15:32.479Z,105077.78
2022-07-30T10:18:01.905Z,104844.06
2022-07-30T10:20:31.155Z,104717.59
2022-07-30T10:23:08.362Z,104731.13
2022-07-30T10:25:49.724Z,104701.56
2022-07-30T10:28:24.151Z,104685.34
2022-07-30T10:30:52.811Z,104475.97
2022-07-30T10:33:34.584Z,104584.16
2022-07-30T10:36:09.040Z,104674.31
2022-07-30T10:38:41.697Z,104848.00
2022-07-30T10:41:42.583Z,105104.41
2022-07-30T10:44:35.028Z,105503.53
2022-07-30T10:47:07.721Z,105826.53
2022-07-30T10:49:40.574Z,105717.56
2022-07-30T10:52:12.750Z,105457.75
2022-07-30T10:54:43.031Z,105595.28
2022-07-30T10:57:15.096Z,105582.59
2022-07-30T11:00:15.447Z,106304.84
2022-07-30T11:03:15.175Z,106875.00
2022-07-30T11:05:45.868Z,107576.59
2022-07-30T11:08:42.576Z,107789.22
2022-07-30T11:12:01.308Z,107547.53
2022-07-30T11:14:58.392Z,107952.91
2022-07-30T11:17:59.915Z,107029.59
2022-07-30T11:20:28.334Z,106549.19
2022-07-30T11:23:13.949Z,106511.16
2022-07-30T11:25:51.209Z,106540.84
2022-07-30T11:28:37.163Z,106294.56
2022-07-30T11:31:10.364Z,106087.75
2022-07-30T11:33:39.086Z,105945.19
2022-07-30T11:36:12.809Z,105616.75
2022-07-30T11:38:55.709Z,105375.09
2022-07-30T11:41:25.351Z,105254.53
2022-07-30T11:44:26.832Z,105269.63
2022-07-30T11:46:55.559Z,105710.91
2022-07-30T11:49:23.564Z,105892.53
2022-07-30T11:51:51.944Z,105923.84
2022-07-30T11:54:20.428Z,106099.56
2022-07-30T11:57:00.854Z,106207.78
2022-07-30T11:59:32.219Z,106321.34
2022-07-30T12:02:02.085Z,106603.81
2022-07-30T12:04:31.036Z,106857.94
2022-07-30T12:06:59.958Z,106866.09
2022-07-30T12:09:29.520Z,107596.00
2022-07-30T12:11:58.984Z,107660.41
2022-07-30T12:14:38.252Z,107127.66
2022-07-30T12:17:06.573Z,107225.63
2022-07-30T12:19:48.047Z,107528.63
2022-07-30T12:22:16.487Z,107646.47
2022-07-30T12:24:44.426Z,107466.63
2022-07-30T12:27:14.124Z,107283.31
2022-07-30T12:29:42.310Z,107043.00
2022-07-30T12:32:10.157Z,106860.13
2022-07-30T12:34:38.089Z,106935.97
2022-07-30T12:37:09.991Z,106918.66
2022-07-30T12:39:38.070Z,106742.16
2022-07-30T12:42:08.377Z,106574.88
2022-07-30T12:44:42.205Z,106410.28
2022-07-30T12:47:21.638Z,106146.75
2022-07-30T12:49:53.105Z,106126.00
2022-07-30T12:52:27.668Z,106070.91
2022-07-30T12:55:03.808Z,105919.38
2022-07-30T12:57:52.617Z,105678.19
2022-07-30T13:00:23.007Z,105452.72
2022-07-30T13:02:51.166Z,105185.72
2022-07-30T13:05:19.293Z,105075.38
2022-07-30T13:07:58.618Z,104907.72
2022-07-30T13:10:31.121Z,104762.50
2022-07-30T13:12:59.809Z,104497.72
2022-07-30T13:15:29.765Z,104338.72
2022-07-30T13:17:57.617Z,104193.91
2022-07-30T13:20:25.994Z,104029.72
2022-07-30T13:22:55.290Z,103962.84
2022-07-30T13:25:24.772Z,103967.19
2022-07-30T13:27:52.773Z,103925.13
2022-07-30T13:30:20.743Z,103915.34
2022-07-30T13:32:49.917Z,104001.63
2022-07-30T13:35:17.822Z,104010.66
2022-07-30T13:37:45.664Z,104005.97
2022-07-30T13:40:13.603Z,104141.69
2022-07-30T13:42:41.519Z,104389.63
2022-07-30T13:45:10.444Z,104616.56
2022-07-30T13:47:38.315Z,104554.94
2022-07-30T13:50:08.753Z,104382.56
2022-07-30T13:52:36.550Z,104224.47
2022-07-30T13:55:04.437Z,104211.94
2022-07-30T13:57:32.383Z,104268.13
2022-07-30T14:00:00.213Z,104291.16
2022-07-30T14:02:29.980Z,104311.88
2022-07-30T14:05:00.903Z,104299.09
2022-07-30T14:07:30.423Z,104388.28
2022-07-30T14:09:58.205Z,104400.81
2022-07-30T14:12:26.587Z,104342.00
2022-07-30T14:14:54.450Z,104368.69
2022-07-30T14:17:22.358Z,104399.81
2022-07-30T14:19:51.485Z,104407.88
2022-07-30T14:22:19.273Z,104539.56
2022-07-30T14:24:48.857Z,104475.06
2022-07-30T14:27:20.481Z,104598.22
2022-07-30T14:29:48.493Z,104778.88
2022-07-30T14:32:16.372Z,105133.69
2022-07-30T14:34:49.483Z,105398.47
2022-07-30T14:37:17.617Z,106037.03
2022-07-30T14:39:45.598Z,107002.91
2022-07-30T14:42:14.950Z,107473.59
2022-07-30T14:44:42.855Z,107809.88
2022-07-30T14:47:10.848Z,107943.59
2022-07-30T14:49:38.663Z,108272.38
2022-07-30T14:52:07.067Z,108455.63
2022-07-30T14:54:35.019Z,108883.97
2022-07-30T14:57:03.873Z,108738.81
2022-07-30T14:59:33.368Z,108124.78
2022-07-30T15:02:02.637Z,107535.44
2022-07-30T15:04:30.924Z,107044.50
2022-07-30T15:06:59.581Z,106963.00
2022-07-30T15:09:29.473Z,106208.25
2022-07-30T15:12:08.703Z,105734.44
2022-07-30T15:14:40.199Z,105311.13
2022-07-30T15:17:09.068Z,105028.53
2022-07-30T15:19:36.904Z,104781.13
2022-07-30T15:22:14.729Z,104880.38
2022-07-30T15:24:42.512Z,104695.91
2022-07-30T15:27:10.442Z,104500.91
2022-07-30T15:29:40.188Z,104325.72
2022-07-30T15:32:08.460Z,104242.63
2022-07-30T15:34:37.035Z,104156.03
2022-07-30T15:37:05.765Z,104111.28
2022-07-30T15:39:34.156Z,104045.38
2022-07-30T15:42:02.766Z,104032.75
2022-07-30T15:44:30.894Z,103973.94
2022-07-30T15:47:00.322Z,103940.88
2022-07-30T15:49:29.516Z,103979.00
2022-07-30T15:51:59.926Z,104000.31
2022-07-30T15:54:29.602Z,103989.66
2022-07-30T15:57:01.159Z,103970.34
2022-07-30T15:59:30.448Z,103891.66
2022-07-30T16:01:58.589Z,103795.66
2022-07-30T16:04:31.493Z,103763.50
2022-07-30T16:06:59.854Z,104280.38
2022-07-30T16:09:27.740Z,105207.41
2022-07-30T16:11:55.748Z,106179.88
2022-07-30T16:14:23.602Z,106793.28
2022-07-30T16:16:52.683Z,107344.22
2022-07-30T16:19:20.643Z,107501.41
2022-07-30T16:21:49.806Z,107596.78
2022-07-30T16:24:17.922Z,107485.06
2022-07-30T16:26:46.007Z,107523.19
2022-07-30T16:29:14.200Z,107755.72
2022-07-30T16:31:42.163Z,107998.72
2022-07-30T16:34:10.390Z,107744.94
2022-07-30T16:36:38.232Z,107682.97
2022-07-30T16:39:07.495Z,107593.09
2022-07-30T16:41:36.552Z,106677.75
2022-07-30T16:44:04.945Z,106110.53
2022-07-30T16:46:32.784Z,105439.97
2022-07-30T16:49:00.734Z,105160.78
2022-07-30T16:51:29.029Z,104845.25
2022-07-30T16:53:56.904Z,104555.22
2022-07-30T16:56:26.241Z,104398.84
2022-07-30T16:58:54.058Z,104238.97
2022-07-30T17:01:22.005Z,104176.38
2022-07-30T17:03:49.949Z,104100.78
2022-07-30T17:06:17.806Z,103991.66
2022-07-30T17:08:45.788Z,103885.72
2022-07-30T17:11:46.540Z,103829.53
2022-07-30T17:14:05.933Z,103753.84
2022-07-30T17:16:34.168Z,103687.78
2022-07-30T17:19:09.503Z,103618.47
2022-07-30T17:21:38.270Z,103598.81
2022-07-30T17:24:11.095Z,103569.50
2022-07-30T17:26:40.540Z,103518.75
2022-07-30T17:29:13.899Z,103498.38
2022-07-30T17:31:44.303Z,103514.19
2022-07-30T17:34:14.204Z,103488.38
2022-07-30T17:36:51.774Z,103455.53
2022-07-30T17:40:04.233Z,103438.50
2022-07-30T17:42:10.703Z,103401.94
2022-07-30T17:44:40.748Z,103365.63
2022-07-30T17:47:15.065Z,103312.34
2022-07-30T17:49:45.121Z,103230.81
2022-07-30T17:52:13.095Z,103136.72
2022-07-30T17:54:41.278Z,103077.06
2022-07-30T17:57:09.534Z,103044.28
2022-07-30T17:59:37.629Z,102985.63
2022-07-30T18:02:06.980Z,102911.97
2022-07-30T18:04:35.489Z,102880.34
2022-07-30T18:07:03.581Z,102828.78
2022-07-30T18:09:38.926Z,102793.31
2022-07-30T18:12:08.927Z,102737.47
2022-07-30T18:14:37.336Z,102701.16
2022-07-30T18:17:10.034Z,102657.00
2022-07-30T18:19:41.002Z,102623.31
2022-07-30T18:22:09.123Z,102598.63
2022-07-30T18:24:40.332Z,102569.53
2022-07-30T18:27:12.748Z,102518.13
2022-07-30T18:29:40.784Z,102481.75
2022-07-30T18:32:10.068Z,102484.47
2022-07-30T18:34:38.177Z,102473.91
2022-07-30T18:37:06.004Z,102372.94
2022-07-30T18:39:33.799Z,102341.25
2022-07-30T18:42:02.654Z,102307.63
2022-07-30T18:44:30.871Z,102263.44
2022-07-30T18:46:58.771Z,102222.97
2022-07-30T18:49:37.202Z,102199.19
2022-07-30T18:52:07.901Z,102155.03
2022-07-30T18:54:36.533Z,102125.00
2022-07-30T18:57:04.839Z,102087.13
2022-07-30T18:59:32.915Z,102019.22
2022-07-30T19:02:01.569Z,101970.69
2022-07-30T19:04:32.037Z,101966.41
2022-07-30T19:06:59.896Z,101887.59
2022-07-30T19:09:28.069Z,101903.53
2022-07-30T19:11:55.902Z,101902.81
2022-07-30T19:14:24.092Z,101862.88
2022-07-30T19:16:52.509Z,101831.44
2022-07-30T19:19:20.516Z,101778.41
2022-07-30T19:21:49.941Z,101754.69
2022-07-30T19:24:17.797Z,101748.56
2022-07-30T19:26:45.766Z,101709.94
2022-07-30T19:29:14.084Z,101669.28
2022-07-30T19:31:42.497Z,101628.94
2022-07-30T19:34:11.768Z,101621.84
2022-07-30T19:36:39.870Z,101613.88
2022-07-30T19:39:13.250Z,101611.31
2022-07-30T19:41:50.811Z,101536.50
2022-07-30T19:44:19.314Z,101505.00
2022-07-30T19:46:48.699Z,101494.50
2022-07-30T19:49:19.852Z,101462.72
2022-07-30T19:52:11.034Z,101461.97
2022-07-30T19:54:38.914Z,101444.09
2022-07-30T19:57:06.852Z,101445.25
2022-07-30T19:59:45.532Z,101419.72
2022-07-30T20:02:22.699Z,101438.16
2022-07-30T20:04:50.947Z,101435.59
2022-07-30T20:07:19.538Z,101427.50
2022-07-30T20:09:49.576Z,101419.72
2022-07-30T20:12:17.530Z,101449.50
2022-07-30T20:14:45.814Z,101452.06
2022-07-30T20:17:15.756Z,101481.31
2022-07-30T20:19:47.926Z,101526.00
2022-07-30T20:22:17.090Z,101526.00
2022-07-30T20:24:45.109Z,101506.56
2022-07-30T20:27:37.301Z,101508.41
2022-07-30T20:30:03.612Z,101527.69
2022-07-30T20:32:31.511Z,101530.09
2022-07-30T20:34:59.272Z,101515.34
2022-07-30T20:37:27.585Z,101519.91
2022-07-30T20:39:56.039Z,101503.84
2022-07-30T20:42:25.559Z,101526.72
2022-07-30T20:44:56.977Z,101547.72
2022-07-30T20:47:34.836Z,101525.84
2022-07-30T20:50:09.367Z,101543.44
2022-07-30T20:52:39.329Z,101543.44
2022-07-30T20:55:08.619Z,101554.09
2022-07-30T20:57:56.819Z,101591.75
2022-07-30T21:00:26.910Z,101533.81
2022-07-30T21:02:54.941Z,101539.19
2022-07-30T21:05:22.995Z,101554.81
2022-07-30T21:07:56.711Z,101511.81
2022-07-30T21:10:25.975Z,101504.84
2022-07-30T21:13:02.970Z,101504.72
2022-07-30T21:15:33.077Z,101531.09
2022-07-30T21:18:01.923Z,101524.16
2022-07-30T21:20:31.730Z,101488.13
2022-07-30T21:23:05.895Z,101458.03
2022-07-30T21:25:41.538Z,101443.25
2022-07-30T21:28:35.398Z,101463.44
2022-07-30T21:31:07.161Z,101421.41
2022-07-30T21:33:36.369Z,101439.56
2022-07-30T21:36:04.925Z,101423.97
2022-07-30T21:38:38.567Z,101456.47
2022-07-30T21:41:11.190Z,101474.06
2022-07-30T21:43:44.209Z,101430.06
2022-07-30T21:46:12.533Z,101439.00
2022-07-30T21:48:41.187Z,101415.19
2022-07-30T21:51:09.844Z,101423.97
2022-07-30T21:53:44.914Z,101422.13
2022-07-30T21:56:14.727Z,101400.16
2022-07-30T21:58:45.661Z,101342.00
2022-07-30T22:01:21.659Z,101327.38
2022-07-30T22:04:03.094Z,101266.84
2022-07-30T22:06:37.758Z,101315.06
2022-07-30T22:09:19.170Z,101294.78
2022-07-30T22:11:56.251Z,101289.53
2022-07-30T22:14:25.817Z,101286.16
2022-07-30T22:16:53.943Z,101262.31
2022-07-30T22:19:22.459Z,101256.06
2022-07-30T22:21:50.938Z,101253.53
2022-07-30T22:24:29.069Z,101247.56
2022-07-30T22:26:59.997Z,101223.78
2022-07-30T22:29:48.897Z,101204.47
2022-07-30T22:32:17.169Z,101199.25
2022-07-30T22:34:45.172Z,101206.31
2022-07-30T22:37:14.834Z,101182.38
2022-07-30T22:39:51.944Z,101142.16
2022-07-30T22:42:24.489Z,101126.44
2022-07-30T22:44:56.246Z,101093.28
2022-07-30T22:47:54.015Z,101080.97
2022-07-30T22:50:14.661Z,101076.59
2022-07-30T22:52:52.824Z,101063.44
2022-07-30T22:55:23.992Z,101027.19
2022-07-30T22:57:52.535Z,100994.94
2022-07-30T23:00:28.153Z,101019.56
2022-07-30T23:02:57.641Z,101003.72
2022-07-30T23:05:26.624Z,100995.19
2022-07-30T23:07:55.478Z,100979.34
2022-07-30T23:10:24.910Z,100969.44
2022-07-30T23:12:56.050Z,100930.25
2022-07-30T23:15:25.754Z,100933.50
2022-07-30T23:17:53.648Z,100905.50
2022-07-30T23:20:22.355Z,100907.34
2022-07-30T23:22:51.013Z,100898.72
2022-07-30T23:25:19.672Z,100878.47
2022-07-30T23:27:47.692Z,100847.75
2022-07-30T23:30:16.808Z,100855.69
2022-07-30T23:32:46.028Z,100819.09
2022-07-30T23:35:13.948Z,100798.00
2022-07-30T23:37:48.869Z,100786.72
2022-07-30T23:40:18.962Z,100730.44
2022-07-30T23:42:47.612Z,100706.84
2022-07-30T23:45:15.709Z,100689.31
2022-07-30T23:47:56.497Z,100646.53
2022-07-30T23:50:32.717Z,100648.53
2022-07-30T23:53:00.677Z,100576.78
2022-07-30T23:55:29.982Z,100529.50
2022-07-30T23:57:58.809Z,100530.34
